Hua Xing Hai — VRQS9 — position and weather

sailwx.info

Track history (hours):
 
Tides and Currents Weather Stations Pressure Air Temp Water Temp Dewpoint Dewpoint Depression Visibility Wind Speed Wind Dir Waves Ship Positions

Hua Xing Hai

Last reported at 2018-Feb-19 08:28 UTC. Time now 2018-Feb-19 08:32 UTC.
Position N 53°31' E 009°57'.

Length 229 m; draft 12.7 m.

Type: Cargo ship. MMSI: 477021900.

Date/timePositionNaut miles runAvg speedWind from/ knotsBaromVisibWave heightAir tempDewpointWater temp
2018-Feb-19 08:28N 53°31' E 009°57'0 0.0
2018-Feb-19 08:01N 53°31' E 009°57'0 0.0
2018-Feb-19 07:28N 53°31' E 009°57'0 0.0
2018-Feb-19 06:58N 53°31' E 009°57'0 0.0
2018-Feb-19 06:31N 53°31' E 009°57'0 0.0
2018-Feb-19 06:00N 53°31' E 009°57'0 0.0
2018-Feb-19 05:28N 53°31' E 009°57'0 0.0
2018-Feb-19 05:00N 53°31' E 009°57'0 0.5
2018-Feb-19 04:30N 53°31' E 009°56'2 3.4
2018-Feb-19 04:00N 53°32' E 009°54'3 6.4
2018-Feb-19 03:30N 53°33' E 009°49'5 9.1
2018-Feb-19 03:00N 53°34' E 009°41'5 9.5
2018-Feb-19 02:30N 53°36' E 009°35'510.0
2018-Feb-19 02:00N 53°41' E 009°30'611.1
2018-Feb-19 01:30N 53°45' E 009°24'611.7
2018-Feb-19 01:00N 53°50' E 009°20'611.6
2018-Feb-19 00:30N 53°53' E 009°11'510.5
2018-Feb-18 23:59N 53°52' E 009°02'510.5
2018-Feb-18 23:30N 53°50' E 008°54'611.1
2018-Feb-18 23:00N 53°51' E 008°45'510.7
2018-Feb-18 22:30N 53°56' E 008°40'612.0
2018-Feb-18 22:00N 53°58' E 008°30'713.2
2018-Feb-18 21:29N 53°60' E 008°19'612.0
2018-Feb-18 21:00N 53°59' E 008°09'612.6
2018-Feb-18 20:30N 54°01' E 007°59'612.2
2018-Feb-18 19:59N 54°04' E 007°49'4 3.3
2018-Feb-18 18:54N 54°05' E 007°44'0 0.0
2018-Feb-18 17:06N 54°05' E 007°44'0 0.0
2018-Feb-18 17:00N 54°05' E 007°44'0 0.0
2018-Feb-18 16:27N 54°05' E 007°44'0 0.1
2018-Feb-18 14:27N 54°06' E 007°44'0 0.1
2018-Feb-18 14:00N 54°06' E 007°44'0 0.1
2018-Feb-18 12:57N 54°06' E 007°44'0 0.1
2018-Feb-18 12:15N 54°05' E 007°44'0 0.0
2018-Feb-18 11:45N 54°05' E 007°44'0 0.0
2018-Feb-18 11:27N 54°05' E 007°44'0 0.0
2018-Feb-18 11:00N 54°05' E 007°44'0 0.0
2018-Feb-18 10:30N 54°05' E 007°44'0 0.4
2018-Feb-18 10:00N 54°06' E 007°44'0 0.4
2018-Feb-18 09:30N 54°05' E 007°44'1 2.7
2018-Feb-18 09:00N 54°06' E 007°42'3 5.5
2018-Feb-18 08:30N 54°08' E 007°38'710.9
2018-Feb-18 07:54N 54°09' E 007°27'22810.4
2018-Feb-17 09:56N 51°45' E 002°33'4 9.9
2018-Feb-17 09:30N 51°42' E 002°29'5 9.8
2018-Feb-17 09:00N 51°38' E 002°24'510.0
2018-Feb-17 08:30N 51°34' E 002°20'510.3
2018-Feb-17 08:00N 51°30' E 002°15'510.3
2018-Feb-17 07:31N 51°25' E 002°10'5 9.6
2018-Feb-17 07:01N 51°21' E 002°09'510.1
2018-Feb-17 06:31N 51°16' E 002°06'510.1
2018-Feb-17 06:00N 51°12' E 002°00'511.0
2018-Feb-17 05:30N 51°10' E 001°52'611.2
2018-Feb-17 05:00N 51°06' E 001°46'611.6
2018-Feb-17 04:30N 51°02' E 001°39'612.2
2018-Feb-17 04:00N 50°58' E 001°32'612.4
2018-Feb-17 03:30N 50°53' E 001°26'713.1
2018-Feb-17 03:00N 50°47' E 001°23'612.0
2018-Feb-17 02:30N 50°41' E 001°19'1912.0
2018-Feb-17 00:56N 50°30' E 000°56'611.7
2018-Feb-17 00:23N 50°28' E 000°46'511.8
2018-Feb-16 23:58N 50°26' E 000°38'612.2
2018-Feb-16 23:28N 50°25' E 000°29'612.6
2018-Feb-16 22:59N 50°23' E 000°20'613.0
2018-Feb-16 22:30N 50°22' E 000°11'713.4
2018-Feb-16 22:00N 50°20' E 000°01'1113.6
2018-Feb-16 21:12N 50°17' W 000°16'413.8
2018-Feb-16 20:56N 50°16' W 000°21'713.8
2018-Feb-16 20:26N 50°14' W 000°32'2513.3
2018-Feb-16 18:34N 50°07' W 001°09'112.4
2018-Feb-16 18:30N 50°07' W 001°10'611.8
2018-Feb-16 18:01N 50°06' W 001°19'611.1
2018-Feb-16 17:30N 50°04' W 001°27'510.2
2018-Feb-16 17:00N 50°03' W 001°35'5 9.3
2018-Feb-16 16:31N 50°02' W 001°42'4 8.5
2018-Feb-16 16:00N 50°01' W 001°48'4 8.1
2018-Feb-16 15:30N 49°60' W 001°55'4 7.6
2018-Feb-16 15:00N 49°59' W 002°00'4 7.2
2018-Feb-16 14:30N 49°58' W 002°06'4 7.2
2018-Feb-16 14:00N 49°57' W 002°11'6 7.8
2018-Feb-16 13:17N 49°55' W 002°19'3 8.7
2018-Feb-16 13:00N 49°54' W 002°23'5 9.4
2018-Feb-16 12:29N 49°53' W 002°30'810.0
2018-Feb-16 11:44N 49°51' W 002°42'210.5
2018-Feb-16 11:31N 49°51' W 002°45'510.7
2018-Feb-16 11:00N 49°49' W 002°53'611.0
2018-Feb-16 10:29N 49°48' W 003°02'711.2
2018-Feb-16 09:53N 49°45' W 003°11'511.4
2018-Feb-16 09:28N 49°42' W 003°17'6611.6
2018-Feb-16 03:44N 49°07' W 004°44'312.6
2018-Feb-16 03:30N 49°06' W 004°48'712.4
2018-Feb-16 02:55N 49°02' W 004°58'512.2
2018-Feb-16 02:29N 48°60' W 005°05'611.8
2018-Feb-16 02:00N 48°57' W 005°12'711.7
2018-Feb-16 01:27N 48°53' W 005°20'511.2
2018-Feb-16 01:00N 48°51' W 005°27'510.9
2018-Feb-16 00:29N 48°48' W 005°34'510.2
2018-Feb-15 23:59N 48°44' W 005°39'10 9.8
2018-Feb-15 22:56N 48°35' W 005°47'5 9.4
2018-Feb-15 22:23N 48°30' W 005°50'  
2018-Feb-10 23:18N 28°38' W 014°43'310.1
2018-Feb-10 23:00N 28°36' W 014°45'510.3
2018-Feb-10 22:30N 28°31' W 014°46'510.6
2018-Feb-10 22:00N 28°26' W 014°48'510.5
2018-Feb-10 21:30N 28°20' W 014°49'510.7
2018-Feb-10 21:00N 28°15' W 014°51'510.6
2018-Feb-10 20:30N 28°10' W 014°53'510.6
2018-Feb-10 20:00N 28°05' W 014°55'510.6
2018-Feb-10 19:30N 28°00' W 014°57'510.7
2018-Feb-10 19:00N 27°55' W 014°59'510.7
2018-Feb-10 18:30N 27°50' W 015°02'610.6
2018-Feb-10 17:59N 27°45' W 015°04'610.6
2018-Feb-10 17:25N 27°39' W 015°05'  
Track history (hours):
 
Tides and Currents Weather Stations Pressure Air Temp Water Temp Dewpoint Dewpoint Depression Visibility Wind Speed Wind Dir Waves Ship Positions

Hua Xing Hai

Last reported at 2018-Feb-19 08:28 UTC. Time now 2018-Feb-19 08:32 UTC.
Position N 53°31' E 009°57'.

Length 229 m; draft 12.7 m.

Type: Cargo ship. MMSI: 477021900.

Date/timePositionNaut miles runAvg speedWind from/ knotsBaromVisibWave heightAir tempDewpointWater temp
2018-Feb-19 08:28N 53°31' E 009°57'0 0.0
2018-Feb-19 08:01N 53°31' E 009°57'0 0.0
2018-Feb-19 07:28N 53°31' E 009°57'0 0.0
2018-Feb-19 06:58N 53°31' E 009°57'0 0.0
2018-Feb-19 06:31N 53°31' E 009°57'0 0.0
2018-Feb-19 06:00N 53°31' E 009°57'0 0.0
2018-Feb-19 05:28N 53°31' E 009°57'0 0.0
2018-Feb-19 05:00N 53°31' E 009°57'0 0.5
2018-Feb-19 04:30N 53°31' E 009°56'2 3.4
2018-Feb-19 04:00N 53°32' E 009°54'3 6.4
2018-Feb-19 03:30N 53°33' E 009°49'5 9.1
2018-Feb-19 03:00N 53°34' E 009°41'5 9.5
2018-Feb-19 02:30N 53°36' E 009°35'510.0
2018-Feb-19 02:00N 53°41' E 009°30'611.1
2018-Feb-19 01:30N 53°45' E 009°24'611.7
2018-Feb-19 01:00N 53°50' E 009°20'611.6
2018-Feb-19 00:30N 53°53' E 009°11'510.5
2018-Feb-18 23:59N 53°52' E 009°02'510.5
2018-Feb-18 23:30N 53°50' E 008°54'611.1
2018-Feb-18 23:00N 53°51' E 008°45'510.7
2018-Feb-18 22:30N 53°56' E 008°40'612.0
2018-Feb-18 22:00N 53°58' E 008°30'713.2
2018-Feb-18 21:29N 53°60' E 008°19'612.0
2018-Feb-18 21:00N 53°59' E 008°09'612.6
2018-Feb-18 20:30N 54°01' E 007°59'612.2
2018-Feb-18 19:59N 54°04' E 007°49'4 3.3
2018-Feb-18 18:54N 54°05' E 007°44'0 0.0
2018-Feb-18 17:06N 54°05' E 007°44'0 0.0
2018-Feb-18 17:00N 54°05' E 007°44'0 0.0
2018-Feb-18 16:27N 54°05' E 007°44'0 0.1
2018-Feb-18 14:27N 54°06' E 007°44'0 0.1
2018-Feb-18 14:00N 54°06' E 007°44'0 0.1
2018-Feb-18 12:57N 54°06' E 007°44'0 0.1
2018-Feb-18 12:15N 54°05' E 007°44'0 0.0
2018-Feb-18 11:45N 54°05' E 007°44'0 0.0
2018-Feb-18 11:27N 54°05' E 007°44'0 0.0
2018-Feb-18 11:00N 54°05' E 007°44'0 0.0
2018-Feb-18 10:30N 54°05' E 007°44'0 0.4
2018-Feb-18 10:00N 54°06' E 007°44'0 0.4
2018-Feb-18 09:30N 54°05' E 007°44'1 2.7
2018-Feb-18 09:00N 54°06' E 007°42'3 5.5
2018-Feb-18 08:30N 54°08' E 007°38'710.9
2018-Feb-18 07:54N 54°09' E 007°27'22810.4
2018-Feb-17 09:56N 51°45' E 002°33'4 9.9
2018-Feb-17 09:30N 51°42' E 002°29'5 9.8
2018-Feb-17 09:00N 51°38' E 002°24'510.0
2018-Feb-17 08:30N 51°34' E 002°20'510.3
2018-Feb-17 08:00N 51°30' E 002°15'510.3
2018-Feb-17 07:31N 51°25' E 002°10'5 9.6
2018-Feb-17 07:01N 51°21' E 002°09'510.1
2018-Feb-17 06:31N 51°16' E 002°06'510.1
2018-Feb-17 06:00N 51°12' E 002°00'511.0
2018-Feb-17 05:30N 51°10' E 001°52'611.2
2018-Feb-17 05:00N 51°06' E 001°46'611.6
2018-Feb-17 04:30N 51°02' E 001°39'612.2
2018-Feb-17 04:00N 50°58' E 001°32'612.4
2018-Feb-17 03:30N 50°53' E 001°26'713.1
2018-Feb-17 03:00N 50°47' E 001°23'612.0
2018-Feb-17 02:30N 50°41' E 001°19'1912.0
2018-Feb-17 00:56N 50°30' E 000°56'611.7
2018-Feb-17 00:23N 50°28' E 000°46'511.8
2018-Feb-16 23:58N 50°26' E 000°38'612.2
2018-Feb-16 23:28N 50°25' E 000°29'612.6
2018-Feb-16 22:59N 50°23' E 000°20'613.0
2018-Feb-16 22:30N 50°22' E 000°11'713.4
2018-Feb-16 22:00N 50°20' E 000°01'1113.6
2018-Feb-16 21:12N 50°17' W 000°16'413.8
2018-Feb-16 20:56N 50°16' W 000°21'713.8
2018-Feb-16 20:26N 50°14' W 000°32'2513.3
2018-Feb-16 18:34N 50°07' W 001°09'112.4
2018-Feb-16 18:30N 50°07' W 001°10'611.8
2018-Feb-16 18:01N 50°06' W 001°19'611.1
2018-Feb-16 17:30N 50°04' W 001°27'510.2
2018-Feb-16 17:00N 50°03' W 001°35'5 9.3
2018-Feb-16 16:31N 50°02' W 001°42'4 8.5
2018-Feb-16 16:00N 50°01' W 001°48'4 8.1
2018-Feb-16 15:30N 49°60' W 001°55'4 7.6
2018-Feb-16 15:00N 49°59' W 002°00'4 7.2
2018-Feb-16 14:30N 49°58' W 002°06'4 7.2
2018-Feb-16 14:00N 49°57' W 002°11'6 7.8
2018-Feb-16 13:17N 49°55' W 002°19'3 8.7
2018-Feb-16 13:00N 49°54' W 002°23'5 9.4
2018-Feb-16 12:29N 49°53' W 002°30'810.0
2018-Feb-16 11:44N 49°51' W 002°42'210.5
2018-Feb-16 11:31N 49°51' W 002°45'510.7
2018-Feb-16 11:00N 49°49' W 002°53'611.0
2018-Feb-16 10:29N 49°48' W 003°02'711.2
2018-Feb-16 09:53N 49°45' W 003°11'511.4
2018-Feb-16 09:28N 49°42' W 003°17'6611.6
2018-Feb-16 03:44N 49°07' W 004°44'312.6
2018-Feb-16 03:30N 49°06' W 004°48'712.4
2018-Feb-16 02:55N 49°02' W 004°58'512.2
2018-Feb-16 02:29N 48°60' W 005°05'611.8
2018-Feb-16 02:00N 48°57' W 005°12'711.7
2018-Feb-16 01:27N 48°53' W 005°20'511.2
2018-Feb-16 01:00N 48°51' W 005°27'510.9
2018-Feb-16 00:29N 48°48' W 005°34'510.2
2018-Feb-15 23:59N 48°44' W 005°39'10 9.8
2018-Feb-15 22:56N 48°35' W 005°47'5 9.4
2018-Feb-15 22:23N 48°30' W 005°50'  
2018-Feb-10 23:18N 28°38' W 014°43'310.1
2018-Feb-10 23:00N 28°36' W 014°45'510.3
2018-Feb-10 22:30N 28°31' W 014°46'510.6
2018-Feb-10 22:00N 28°26' W 014°48'510.5
2018-Feb-10 21:30N 28°20' W 014°49'510.7
2018-Feb-10 21:00N 28°15' W 014°51'510.6
2018-Feb-10 20:30N 28°10' W 014°53'510.6
2018-Feb-10 20:00N 28°05' W 014°55'510.6
2018-Feb-10 19:30N 28°00' W 014°57'510.7
2018-Feb-10 19:00N 27°55' W 014°59'510.7
2018-Feb-10 18:30N 27°50' W 015°02'610.6
2018-Feb-10 17:59N 27°45' W 015°04'610.6
2018-Feb-10 17:25N 27°39' W 015°05'  

Dump ship's entire track history